createdAt,value
2022-10-18T00:00:45.533Z,38.33
2022-10-18T00:04:03.107Z,37.40
2022-10-18T00:07:17.386Z,38.08
2022-10-18T00:16:19.329Z,39.35
2022-10-18T00:19:17.898Z,38.95
2022-10-18T00:22:31.018Z,38.37
2022-10-18T00:28:34.943Z,39.33
2022-10-18T00:31:26.552Z,40.15
2022-10-18T00:37:41.361Z,39.85
2022-10-18T00:40:34.434Z,38.90
2022-10-18T00:46:51.778Z,41.13
2022-10-18T00:50:07.780Z,38.75
2022-10-18T00:53:21.249Z,39.45
2022-10-18T01:10:10.739Z,35.47
2022-10-18T01:37:19.359Z,29.33
2022-10-18T01:40:28.170Z,31.13
2022-10-18T01:47:23.068Z,28.83
2022-10-18T01:50:36.336Z,29.58
2022-10-18T01:53:37.056Z,33.00
2022-10-18T01:56:53.320Z,33.45
2022-10-18T02:00:03.304Z,33.47
2022-10-18T02:06:10.854Z,31.85
2022-10-18T02:08:54.691Z,31.00
2022-10-18T02:11:55.785Z,31.30
2022-10-18T02:14:55.499Z,30.08
2022-10-18T02:21:00.799Z,27.70
2022-10-18T02:24:11.873Z,27.02
2022-10-18T02:27:17.614Z,27.33
2022-10-18T02:30:07.406Z,28.35
2022-10-18T02:36:07.094Z,29.27
2022-10-18T02:49:04.843Z,28.40
2022-10-18T03:16:06.147Z,29.58
2022-10-18T03:18:58.032Z,29.33
2022-10-18T03:22:08.584Z,28.58
2022-10-18T03:27:52.532Z,29.67
2022-10-18T03:34:20.106Z,28.48
2022-10-18T03:37:05.949Z,27.52
2022-10-18T03:43:33.624Z,26.85
2022-10-18T03:46:13.641Z,28.77
2022-10-18T03:51:53.260Z,27.38
2022-10-18T03:54:48.766Z,27.92
2022-10-18T03:57:46.865Z,25.63
2022-10-18T04:01:33.343Z,25.65
2022-10-18T04:35:49.116Z,24.70
2022-10-18T04:38:10.678Z,24.17
2022-10-18T04:41:01.124Z,24.02
2022-10-18T04:43:49.631Z,22.73
2022-10-18T04:46:34.356Z,23.77
2022-10-18T04:49:10.366Z,22.60
2022-10-18T04:51:47.933Z,24.80
2022-10-18T04:54:34.451Z,37.92
2022-10-18T04:57:21.221Z,28.75
2022-10-18T05:00:01.999Z,27.45
2022-10-18T05:02:56.085Z,28.45
2022-10-18T05:11:49.041Z,33.95
2022-10-18T05:14:16.168Z,28.13
2022-10-18T05:16:44.252Z,28.90
2022-10-18T05:19:20.610Z,27.60
2022-10-18T05:21:51.733Z,29.25
2022-10-18T05:24:25.463Z,29.52
2022-10-18T05:29:43.912Z,26.83
2022-10-18T05:32:11.877Z,27.67
2022-10-18T05:35:02.625Z,27.17
2022-10-18T05:37:48.877Z,26.88
2022-10-18T05:40:48.228Z,29.33
2022-10-18T05:44:03.511Z,26.77
2022-10-18T05:46:53.934Z,25.45
2022-10-18T05:49:29.905Z,23.67
2022-10-18T05:52:14.374Z,24.80
2022-10-18T05:54:49.755Z,22.48
2022-10-18T05:57:20.005Z,22.38
2022-10-18T05:59:58.261Z,22.95
2022-10-18T06:05:43.340Z,24.40
2022-10-18T06:08:27.741Z,22.92
2022-10-18T06:11:18.974Z,23.35
2022-10-18T06:14:13.935Z,23.27
2022-10-18T06:17:00.859Z,23.48
2022-10-18T06:19:38.529Z,25.77
2022-10-18T06:22:30.932Z,26.65
2022-10-18T06:25:22.515Z,27.67
2022-10-18T06:28:01.033Z,25.92
2022-10-18T06:31:02.269Z,24.75
2022-10-18T06:34:06.409Z,24.45
2022-10-18T06:36:44.161Z,25.40
2022-10-18T06:39:32.448Z,27.15
2022-10-18T06:42:18.003Z,29.17
2022-10-18T06:51:30.233Z,31.25
2022-10-18T06:54:18.888Z,28.60
2022-10-18T06:56:56.392Z,28.42
2022-10-18T07:02:47.416Z,27.63
2022-10-18T07:06:02.781Z,28.23
2022-10-18T07:12:13.161Z,26.20
2022-10-18T07:15:09.330Z,27.10
2022-10-18T07:18:07.403Z,28.85
2022-10-18T07:20:58.168Z,29.40
2022-10-18T07:30:00.231Z,27.65
2022-10-18T07:32:56.717Z,28.92
2022-10-18T07:35:37.333Z,25.77
2022-10-18T07:38:12.207Z,27.45
2022-10-18T07:41:11.802Z,26.00
2022-10-18T07:44:00.227Z,25.42
2022-10-18T07:46:43.847Z,27.30
2022-10-18T07:49:49.418Z,25.73
2022-10-18T07:52:34.759Z,26.10
2022-10-18T07:55:16.920Z,26.02
2022-10-18T07:58:03.246Z,24.92
2022-10-18T08:01:02.089Z,26.08
2022-10-18T08:03:52.763Z,26.95
2022-10-18T08:06:48.980Z,26.77
2022-10-18T08:09:43.134Z,27.45
2022-10-18T08:12:35.556Z,29.23
2022-10-18T08:15:35.799Z,29.25
2022-10-18T08:21:24.545Z,32.17
2022-10-18T08:24:23.545Z,32.42
2022-10-18T08:27:05.630Z,32.53
2022-10-18T08:30:04.421Z,29.00
2022-10-18T08:33:01.270Z,29.67
2022-10-18T08:36:19.448Z,28.20
2022-10-18T08:39:10.389Z,32.22
2022-10-18T08:56:11.489Z,37.95
2022-10-18T08:59:01.031Z,39.15
2022-10-18T09:02:17.300Z,35.88
2022-10-18T09:08:37.789Z,40.28
2022-10-18T09:18:24.648Z,36.95
2022-10-18T09:20:56.876Z,39.92
2022-10-18T09:24:04.043Z,37.33
2022-10-18T09:27:03.846Z,36.53
2022-10-18T09:30:01.323Z,37.55
2022-10-18T09:32:51.171Z,38.03
2022-10-18T09:35:36.793Z,38.08
2022-10-18T09:38:32.679Z,38.75
2022-10-18T09:41:40.781Z,36.40
2022-10-18T09:45:02.668Z,34.13
2022-10-18T09:47:47.933Z,34.20
2022-10-18T09:54:15.555Z,32.55
2022-10-18T09:59:42.330Z,33.25
2022-10-18T10:02:13.670Z,31.92
2022-10-18T10:04:40.726Z,30.50
2022-10-18T10:07:20.831Z,31.40
2022-10-18T10:10:07.918Z,31.40
2022-10-18T10:12:46.994Z,30.70
2022-10-18T10:15:42.442Z,30.80
2022-10-18T10:18:29.482Z,28.38
2022-10-18T10:21:11.574Z,28.20
2022-10-18T10:23:47.915Z,26.73
2022-10-18T10:26:23.628Z,26.70
2022-10-18T10:28:51.009Z,26.50
2022-10-18T10:35:56.094Z,24.15
2022-10-18T10:57:36.677Z,23.48
2022-10-18T11:14:45.581Z,20.92
2022-10-18T11:18:14.176Z,19.45
2022-10-18T11:35:23.249Z,20.98
2022-10-18T11:39:02.892Z,20.10
2022-10-18T13:59:05.695Z,15.07
2022-10-18T14:02:10.799Z,13.77
2022-10-18T14:14:32.157Z,14.83
2022-10-18T14:25:47.036Z,14.73
2022-10-18T14:46:17.013Z,14.00
2022-10-18T14:48:48.608Z,13.60
2022-10-18T15:05:19.288Z,13.70
2022-10-18T15:09:42.567Z,13.82
2022-10-18T15:12:02.121Z,13.98
2022-10-18T15:32:35.676Z,13.13
2022-10-18T15:41:53.341Z,13.75
2022-10-18T15:45:05.712Z,14.15
2022-10-18T15:48:10.715Z,15.65
2022-10-18T15:50:58.716Z,14.80
2022-10-18T15:57:05.055Z,15.30
2022-10-18T16:03:09.434Z,15.38
2022-10-18T16:15:41.462Z,16.35
2022-10-18T16:18:28.005Z,15.82
2022-10-18T16:21:29.965Z,17.60
2022-10-18T16:24:17.740Z,16.23
2022-10-18T16:29:53.947Z,18.90
2022-10-18T17:02:32.542Z,23.35
2022-10-18T17:14:13.709Z,23.65
2022-10-18T17:16:57.537Z,24.23
2022-10-18T17:20:34.961Z,23.25
2022-10-18T17:23:32.625Z,23.63
2022-10-18T17:30:13.010Z,23.20
2022-10-18T17:32:46.292Z,21.73
2022-10-18T17:35:47.585Z,23.60
2022-10-18T17:38:50.937Z,25.02
2022-10-18T17:41:37.684Z,24.92
2022-10-18T17:44:46.679Z,26.10
2022-10-18T17:47:31.407Z,26.27
2022-10-18T17:50:34.308Z,25.77
2022-10-18T17:53:28.953Z,23.80
2022-10-18T17:56:17.245Z,23.73
2022-10-18T17:59:11.209Z,25.67
2022-10-18T18:02:24.553Z,23.80
2022-10-18T18:05:28.783Z,26.05
2022-10-18T18:08:07.955Z,29.73
2022-10-18T18:10:41.278Z,27.50
2022-10-18T18:19:23.355Z,30.48
2022-10-18T18:25:17.163Z,28.42
2022-10-18T18:28:11.405Z,28.13
2022-10-18T18:30:45.288Z,28.63
2022-10-18T18:33:49.361Z,32.72
2022-10-18T18:36:50.690Z,35.05
2022-10-18T18:39:43.669Z,34.42
2022-10-18T18:42:23.948Z,32.17
2022-10-18T18:45:00.391Z,33.33
2022-10-18T18:47:44.100Z,32.85
2022-10-18T18:50:24.353Z,36.85
2022-10-18T18:59:13.770Z,36.70
2022-10-18T19:01:56.845Z,37.88
2022-10-18T19:04:39.480Z,36.42
2022-10-18T19:07:12.481Z,37.70
2022-10-18T19:09:43.636Z,35.38
2022-10-18T19:12:25.106Z,35.13
2022-10-18T19:14:53.596Z,34.42
2022-10-18T19:17:35.664Z,35.63
2022-10-18T19:20:15.177Z,36.60
2022-10-18T19:22:51.821Z,36.00
2022-10-18T19:25:21.104Z,35.45
2022-10-18T19:27:55.780Z,36.80
2022-10-18T19:30:28.933Z,35.83
2022-10-18T19:35:55.259Z,38.42
2022-10-18T19:38:30.302Z,38.60
2022-10-18T19:41:02.089Z,41.60
2022-10-18T19:43:35.991Z,46.70
2022-10-18T19:46:28.681Z,49.35
2022-10-18T19:49:08.916Z,45.33
2022-10-18T19:51:52.889Z,44.03
2022-10-18T19:54:25.252Z,41.72
2022-10-18T19:57:23.464Z,37.88
2022-10-18T20:00:10.863Z,38.33
2022-10-18T20:02:52.644Z,38.25
2022-10-18T20:05:40.867Z,35.55
2022-10-18T20:11:27.455Z,33.45
2022-10-18T20:14:23.393Z,35.60
2022-10-18T20:17:25.227Z,37.72
2022-10-18T20:20:12.737Z,38.67
2022-10-18T20:22:54.806Z,40.15
2022-10-18T20:25:21.908Z,39.42
2022-10-18T20:27:55.989Z,45.10
2022-10-18T20:30:27.909Z,41.40
2022-10-18T20:33:15.757Z,42.38
2022-10-18T20:35:52.330Z,43.38
2022-10-18T20:38:23.512Z,42.92
2022-10-18T20:41:00.737Z,46.30
2022-10-18T20:43:41.966Z,44.78
2022-10-18T20:46:09.679Z,44.78
2022-10-18T20:49:10.038Z,46.55
2022-10-18T20:52:13.498Z,44.78
2022-10-18T20:54:51.115Z,44.13
2022-10-18T20:57:17.852Z,44.40
2022-10-18T20:59:44.802Z,44.38
2022-10-18T21:02:12.504Z,44.53
2022-10-18T21:04:42.295Z,43.13
2022-10-18T21:07:09.155Z,43.92
2022-10-18T21:09:46.141Z,43.60
2022-10-18T21:12:12.945Z,42.55
2022-10-18T21:14:39.841Z,42.55
2022-10-18T21:17:06.744Z,43.42
2022-10-18T21:19:36.697Z,42.38
2022-10-18T21:22:14.950Z,42.20
2022-10-18T21:24:41.736Z,43.03
2022-10-18T21:27:08.440Z,42.38
2022-10-18T21:32:39.293Z,41.38
2022-10-18T21:35:13.572Z,41.83
2022-10-18T21:37:48.131Z,40.90
2022-10-18T21:40:17.002Z,41.85
2022-10-18T21:42:44.023Z,43.47
2022-10-18T21:45:10.964Z,43.83
2022-10-18T21:47:37.685Z,42.00
2022-10-18T21:50:08.918Z,42.63
2022-10-18T21:52:35.824Z,44.75
2022-10-18T21:55:04.742Z,43.78
2022-10-18T22:00:01.040Z,43.35
2022-10-18T22:02:27.742Z,43.65
2022-10-18T22:04:54.647Z,42.70
2022-10-18T22:07:21.321Z,42.60
2022-10-18T22:09:48.028Z,43.08
2022-10-18T22:12:18.062Z,42.63
2022-10-18T22:14:44.724Z,43.45
2022-10-18T22:17:11.459Z,42.60
2022-10-18T22:19:38.145Z,41.85
2022-10-18T22:22:04.859Z,42.70
2022-10-18T22:24:31.712Z,41.55
2022-10-18T22:26:58.377Z,41.80
2022-10-18T22:29:26.515Z,40.72
2022-10-18T22:31:54.468Z,40.40
2022-10-18T22:34:22.980Z,42.25
2022-10-18T22:36:50.423Z,42.67
2022-10-18T22:39:17.664Z,41.22
2022-10-18T22:41:45.050Z,41.58
2022-10-18T22:44:12.344Z,41.95
2022-10-18T22:46:41.305Z,42.90
2022-10-18T22:49:08.555Z,42.88
2022-10-18T22:54:02.477Z,43.92
2022-10-18T22:56:29.182Z,42.67
2022-10-18T22:58:56.003Z,43.83
2022-10-18T23:01:23.987Z,41.35
2022-10-18T23:03:56.200Z,39.45
2022-10-18T23:06:24.690Z,37.80
2022-10-18T23:08:52.666Z,41.13
2022-10-18T23:11:19.724Z,39.72
2022-10-18T23:13:46.986Z,38.83
2022-10-18T23:16:14.074Z,37.38
2022-10-18T23:18:40.988Z,40.45
2022-10-18T23:21:10.909Z,39.33
2022-10-18T23:23:39.133Z,42.17
2022-10-18T23:26:08.304Z,41.15
2022-10-18T23:28:36.490Z,39.90
2022-10-18T23:31:08.257Z,40.13
2022-10-18T23:33:35.196Z,44.42
2022-10-18T23:36:02.505Z,42.10
2022-10-18T23:38:39.041Z,42.92
2022-10-18T23:41:06.532Z,42.22
2022-10-18T23:43:33.824Z,41.70
2022-10-18T23:46:00.782Z,41.67
2022-10-18T23:48:27.746Z,40.60
2022-10-18T23:50:54.535Z,39.80
2022-10-18T23:53:22.127Z,39.38
2022-10-18T23:55:58.694Z,38.97
2022-10-18T23:58:27.082Z,38.47
